createdAt,value
2019-05-21T00:00:14.832Z,17.06
2019-05-21T00:02:44.707Z,17.03
2019-05-21T00:05:15.670Z,17.07
2019-05-21T00:07:45.528Z,17.08
2019-05-21T00:10:16.009Z,17.09
2019-05-21T00:12:46.308Z,17.10
2019-05-21T00:15:16.570Z,17.14
2019-05-21T00:17:46.822Z,17.15
2019-05-21T00:20:18.061Z,17.20
2019-05-21T00:22:48.201Z,17.18
2019-05-21T00:25:18.441Z,17.10
2019-05-21T00:27:48.641Z,17.04
2019-05-21T00:30:54.789Z,17.01
2019-05-21T00:34:00.682Z,17.02
2019-05-21T00:37:08.293Z,16.99
2019-05-21T00:40:15.061Z,16.96
2019-05-21T00:42:45.851Z,16.91
2019-05-21T00:45:15.914Z,16.94
2019-05-21T00:47:45.959Z,16.92
2019-05-21T00:50:16.369Z,16.93
2019-05-21T00:52:46.736Z,16.93
2019-05-21T00:55:16.987Z,16.92
2019-05-21T00:57:47.921Z,16.95
2019-05-21T01:00:18.918Z,16.94
2019-05-21T01:02:48.771Z,16.96
2019-05-21T01:05:18.820Z,16.96
2019-05-21T01:07:48.814Z,16.93
2019-05-21T01:10:19.114Z,16.94
2019-05-21T01:12:49.021Z,16.95
2019-05-21T01:15:18.972Z,16.90
2019-05-21T01:17:49.287Z,16.81
2019-05-21T01:20:20.557Z,16.77
2019-05-21T01:22:50.439Z,16.75
2019-05-21T01:25:20.495Z,16.72
2019-05-21T01:27:50.429Z,16.69
2019-05-21T01:30:20.366Z,16.64
2019-05-21T01:32:50.204Z,16.54
2019-05-21T01:35:19.985Z,16.53
2019-05-21T01:37:49.823Z,16.61
2019-05-21T01:40:19.783Z,16.68
2019-05-21T01:42:49.763Z,16.70
2019-05-21T01:45:19.775Z,16.66
2019-05-21T01:47:49.623Z,16.61
2019-05-21T01:50:19.690Z,16.57
2019-05-21T01:52:49.807Z,16.50
2019-05-21T01:55:19.700Z,16.45
2019-05-21T01:57:49.761Z,16.44
2019-05-21T02:00:19.900Z,16.47
2019-05-21T02:02:50.074Z,16.46
2019-05-21T02:05:32.735Z,16.36
2019-05-21T02:07:51.971Z,16.29
2019-05-21T02:10:22.285Z,16.24
2019-05-21T02:12:52.174Z,16.25
2019-05-21T02:15:22.209Z,16.26
2019-05-21T02:17:52.080Z,16.23
2019-05-21T02:20:22.822Z,16.23
2019-05-21T02:22:52.819Z,16.29
2019-05-21T02:25:23.205Z,16.29
2019-05-21T02:27:53.733Z,16.29
2019-05-21T02:30:24.535Z,16.26
2019-05-21T02:32:54.719Z,16.15
2019-05-21T02:35:24.662Z,16.18
2019-05-21T02:37:54.566Z,16.17
2019-05-21T02:40:25.194Z,16.19
2019-05-21T02:42:55.066Z,16.22
2019-05-21T02:45:26.068Z,16.26
2019-05-21T02:47:56.307Z,16.25
2019-05-21T02:50:26.696Z,16.21
2019-05-21T02:52:56.686Z,16.21
2019-05-21T02:55:26.834Z,16.20
2019-05-21T02:57:56.760Z,16.17
2019-05-21T03:00:40.130Z,16.11
2019-05-21T03:03:11.054Z,16.09
2019-05-21T03:05:41.028Z,16.06
2019-05-21T03:08:11.086Z,16.10
2019-05-21T03:10:41.192Z,16.09
2019-05-21T03:13:11.083Z,16.07
2019-05-21T03:15:41.039Z,16.06
2019-05-21T03:18:10.954Z,16.05
2019-05-21T03:20:40.930Z,16.06
2019-05-21T03:23:12.663Z,16.09
2019-05-21T03:25:42.517Z,16.12
2019-05-21T03:28:12.647Z,16.09
2019-05-21T03:30:42.679Z,16.03
2019-05-21T03:33:12.701Z,16.03
2019-05-21T03:35:42.639Z,16.03
2019-05-21T03:38:12.546Z,16.05
2019-05-21T03:40:42.492Z,16.03
2019-05-21T03:43:12.455Z,16.03
2019-05-21T03:45:42.764Z,15.98
2019-05-21T03:48:12.676Z,15.93
2019-05-21T03:50:42.544Z,15.92
2019-05-21T03:53:12.584Z,15.89
2019-05-21T03:55:42.785Z,15.88
2019-05-21T03:58:14.384Z,15.88
2019-05-21T04:00:44.280Z,15.90
2019-05-21T04:03:14.209Z,15.89
2019-05-21T04:05:44.167Z,15.86
2019-05-21T04:08:14.226Z,15.84
2019-05-21T04:10:44.171Z,15.84
2019-05-21T04:13:14.309Z,15.80
2019-05-21T04:15:51.314Z,15.83
2019-05-21T04:18:26.392Z,15.82
2019-05-21T04:20:56.240Z,15.79
2019-05-21T04:23:26.031Z,15.86
2019-05-21T04:25:55.992Z,15.88
2019-05-21T04:28:25.828Z,15.97
2019-05-21T04:30:56.157Z,16.02
2019-05-21T04:33:27.273Z,16.00
2019-05-21T04:35:57.094Z,15.96
2019-05-21T04:38:26.954Z,15.93
2019-05-21T04:40:57.151Z,15.91
2019-05-21T04:43:27.153Z,15.90
2019-05-21T04:45:57.236Z,15.86
2019-05-21T04:48:28.160Z,15.88
2019-05-21T04:50:58.026Z,15.88
2019-05-21T04:53:27.838Z,15.91
2019-05-21T04:55:58.137Z,15.89
2019-05-21T04:58:28.376Z,15.88
2019-05-21T05:00:58.293Z,15.91
2019-05-21T05:03:28.255Z,15.93
2019-05-21T05:05:58.321Z,15.92
2019-05-21T05:08:28.610Z,15.92
2019-05-21T05:10:58.610Z,15.92
2019-05-21T05:13:28.572Z,15.94
2019-05-21T05:15:58.486Z,15.91
2019-05-21T05:18:28.373Z,15.89
2019-05-21T05:20:58.192Z,15.95
2019-05-21T05:23:28.486Z,15.92
2019-05-21T05:25:59.759Z,15.99
2019-05-21T05:28:29.731Z,15.98
2019-05-21T05:31:01.172Z,16.02
2019-05-21T05:33:31.147Z,16.02
2019-05-21T05:36:01.367Z,15.96
2019-05-21T05:38:31.335Z,15.93
2019-05-21T05:41:01.629Z,15.87
2019-05-21T05:43:31.566Z,15.83
2019-05-21T05:46:01.901Z,15.84
2019-05-21T05:48:33.334Z,15.89
2019-05-21T05:51:05.188Z,15.92
2019-05-21T05:53:54.357Z,15.92
2019-05-21T05:56:24.370Z,15.90
2019-05-21T05:58:54.657Z,15.86
2019-05-21T06:01:25.161Z,15.84
2019-05-21T06:03:55.297Z,15.87
2019-05-21T06:06:25.196Z,15.88
2019-05-21T06:08:55.177Z,15.83
2019-05-21T06:11:25.495Z,15.81
2019-05-21T06:13:55.544Z,15.80
2019-05-21T06:16:25.435Z,15.78
2019-05-21T06:18:55.625Z,15.78
2019-05-21T06:21:25.841Z,15.81
2019-05-21T06:23:55.763Z,15.86
2019-05-21T06:26:26.090Z,15.87
2019-05-21T06:28:55.908Z,15.83
2019-05-21T06:31:25.885Z,15.84
2019-05-21T06:33:55.925Z,15.94
2019-05-21T06:36:26.438Z,15.99
2019-05-21T06:38:56.501Z,15.95
2019-05-21T06:41:26.665Z,15.95
2019-05-21T06:43:56.868Z,15.93
2019-05-21T06:46:26.805Z,15.87
2019-05-21T06:48:57.001Z,15.87
2019-05-21T06:51:27.329Z,15.82
2019-05-21T06:53:57.272Z,15.72
2019-05-21T06:56:27.206Z,15.66
2019-05-21T06:58:57.167Z,15.56
2019-05-21T07:01:29.218Z,15.45
2019-05-21T07:03:58.974Z,15.46
2019-05-21T07:06:29.138Z,15.44
2019-05-21T07:08:59.465Z,15.38
2019-05-21T07:11:29.491Z,15.35
2019-05-21T07:13:59.357Z,15.42
2019-05-21T07:16:30.194Z,15.36
2019-05-21T07:19:00.027Z,15.36
2019-05-21T07:21:30.365Z,15.46
2019-05-21T07:24:00.384Z,15.51
2019-05-21T07:26:30.442Z,15.52
2019-05-21T07:29:00.390Z,15.50
2019-05-21T07:31:30.723Z,15.51
2019-05-21T07:34:00.891Z,15.53
2019-05-21T07:36:32.370Z,15.45
2019-05-21T07:39:02.159Z,15.44
2019-05-21T07:41:33.194Z,15.50
2019-05-21T07:44:03.711Z,15.46
2019-05-21T07:46:33.830Z,15.44
2019-05-21T07:49:03.782Z,15.52
2019-05-21T07:51:33.596Z,15.62
2019-05-21T07:54:03.448Z,15.59
2019-05-21T07:56:33.313Z,15.61
2019-05-21T07:59:03.589Z,15.62
2019-05-21T08:01:33.858Z,15.62
2019-05-21T08:04:03.786Z,15.57
2019-05-21T08:06:33.771Z,15.50
2019-05-21T08:09:13.488Z,15.53
2019-05-21T08:11:36.602Z,15.52
2019-05-21T08:14:07.244Z,15.58
2019-05-21T08:16:37.344Z,15.62
2019-05-21T08:19:07.217Z,15.60
2019-05-21T08:21:37.013Z,15.56
2019-05-21T08:24:06.990Z,15.58
2019-05-21T08:26:36.955Z,15.66
2019-05-21T08:29:07.447Z,15.71
2019-05-21T08:31:37.400Z,15.83
2019-05-21T08:34:07.631Z,15.88
2019-05-21T08:36:37.508Z,15.92
2019-05-21T08:39:08.126Z,15.89
2019-05-21T08:41:38.287Z,15.80
2019-05-21T08:44:08.315Z,15.78
2019-05-21T08:46:38.652Z,15.76
2019-05-21T08:49:08.675Z,15.78
2019-05-21T08:51:39.837Z,15.77
2019-05-21T08:54:09.991Z,15.75
2019-05-21T08:56:40.247Z,15.77
2019-05-21T08:59:10.512Z,15.84
2019-05-21T09:01:40.363Z,15.85
2019-05-21T09:04:10.606Z,15.93
2019-05-21T09:06:40.915Z,16.01
2019-05-21T09:09:11.014Z,16.04
2019-05-21T09:11:40.954Z,15.94
2019-05-21T09:14:10.870Z,15.83
2019-05-21T09:16:40.801Z,15.79
2019-05-21T09:19:10.709Z,15.85
2019-05-21T09:21:41.388Z,15.91
2019-05-21T09:24:11.881Z,16.00
2019-05-21T09:26:41.841Z,16.05
2019-05-21T09:29:11.916Z,16.02
2019-05-21T09:31:41.866Z,16.02
2019-05-21T09:34:11.769Z,16.07
2019-05-21T09:36:41.651Z,16.13
2019-05-21T09:39:11.776Z,16.13
2019-05-21T09:41:41.650Z,16.10
2019-05-21T09:44:11.592Z,16.11
2019-05-21T09:46:41.567Z,16.11
2019-05-21T09:49:11.401Z,16.14
2019-05-21T09:51:44.234Z,16.11
2019-05-21T09:54:14.194Z,16.16
2019-05-21T09:56:44.045Z,16.18
2019-05-21T09:59:50.533Z,16.10
2019-05-21T10:02:25.577Z,16.04
2019-05-21T10:04:55.821Z,15.99
2019-05-21T10:07:38.919Z,15.93
2019-05-21T10:09:57.302Z,15.90
2019-05-21T10:12:27.522Z,15.91
2019-05-21T10:14:57.329Z,15.84
2019-05-21T10:17:27.514Z,15.84
2019-05-21T10:19:58.973Z,15.91
2019-05-21T10:22:28.963Z,15.88
2019-05-21T10:24:59.080Z,15.83
2019-05-21T10:27:29.018Z,15.75
2019-05-21T10:29:59.140Z,15.68
2019-05-21T10:32:29.220Z,15.65
2019-05-21T10:34:59.254Z,15.73
2019-05-21T10:37:30.809Z,15.79
2019-05-21T10:40:01.275Z,15.85
2019-05-21T10:42:31.223Z,15.83
2019-05-21T10:45:01.230Z,15.82
2019-05-21T10:47:32.483Z,15.77
2019-05-21T10:50:02.924Z,15.75
2019-05-21T10:52:32.972Z,15.79
2019-05-21T10:55:04.539Z,15.85
2019-05-21T10:57:34.496Z,15.90
2019-05-21T11:00:06.537Z,15.90
2019-05-21T11:02:45.893Z,15.91
2019-05-21T11:05:20.107Z,15.88
2019-05-21T11:07:49.952Z,15.95
2019-05-21T11:10:20.251Z,15.97
2019-05-21T11:12:50.165Z,15.95
2019-05-21T11:15:21.133Z,15.96
2019-05-21T11:18:09.067Z,16.00
2019-05-21T11:20:22.981Z,16.09
2019-05-21T11:22:53.252Z,16.04
2019-05-21T11:25:23.281Z,16.01
2019-05-21T11:27:53.153Z,15.88
2019-05-21T11:30:23.324Z,15.93
2019-05-21T11:32:54.417Z,15.97
2019-05-21T11:35:24.496Z,15.95
2019-05-21T11:37:54.362Z,15.89
2019-05-21T11:40:25.763Z,15.85
2019-05-21T11:42:55.647Z,15.87
2019-05-21T11:45:32.136Z,15.92
2019-05-21T11:47:57.382Z,15.96
2019-05-21T11:50:27.271Z,15.95
2019-05-21T11:52:57.367Z,15.95
2019-05-21T11:55:27.383Z,15.93
2019-05-21T11:57:57.987Z,15.86
2019-05-21T12:00:29.125Z,15.84
2019-05-21T12:02:59.185Z,15.90
2019-05-21T12:05:29.298Z,15.88
2019-05-21T12:07:59.441Z,15.89
2019-05-21T12:10:30.660Z,15.96
2019-05-21T12:13:00.730Z,16.03
2019-05-21T12:15:30.727Z,15.97
2019-05-21T12:18:00.608Z,15.96
2019-05-21T12:20:36.866Z,16.06
2019-05-21T12:23:02.152Z,16.13
2019-05-21T12:25:32.032Z,16.11
2019-05-21T12:28:01.810Z,15.97
2019-05-21T12:30:33.074Z,15.99
2019-05-21T12:33:02.982Z,15.95
2019-05-21T12:35:32.820Z,15.97
2019-05-21T12:38:02.767Z,15.98
2019-05-21T12:40:32.684Z,16.00
2019-05-21T12:43:02.949Z,16.16
2019-05-21T12:45:32.965Z,16.45
2019-05-21T12:48:03.193Z,16.55
2019-05-21T12:50:33.468Z,16.63
2019-05-21T12:53:03.695Z,16.60
2019-05-21T12:55:33.648Z,16.59
2019-05-21T12:58:03.640Z,16.63
2019-05-21T13:00:36.652Z,16.72
2019-05-21T13:03:06.569Z,16.76
2019-05-21T13:05:36.479Z,16.74
2019-05-21T13:08:06.750Z,16.66
2019-05-21T13:10:37.644Z,16.62
2019-05-21T13:13:08.219Z,16.58
2019-05-21T13:15:38.086Z,16.54
2019-05-21T13:18:08.582Z,16.44
2019-05-21T13:20:38.491Z,16.42
2019-05-21T13:23:08.735Z,16.19
2019-05-21T13:25:38.564Z,16.34
2019-05-21T13:28:08.514Z,16.35
2019-05-21T13:30:38.467Z,16.34
2019-05-21T13:33:08.456Z,16.37
2019-05-21T13:35:38.370Z,16.40
2019-05-21T13:38:13.161Z,16.47
2019-05-21T13:40:40.423Z,16.47
2019-05-21T13:43:10.240Z,16.39
2019-05-21T13:45:40.207Z,16.30
2019-05-21T13:48:10.271Z,16.22
2019-05-21T13:50:40.895Z,16.28
2019-05-21T13:53:11.009Z,16.34
2019-05-21T13:55:40.844Z,16.40
2019-05-21T13:58:10.796Z,16.39
2019-05-21T14:00:46.780Z,16.36
2019-05-21T14:03:17.950Z,16.32
2019-05-21T14:05:47.878Z,16.28
2019-05-21T14:08:18.010Z,16.29
2019-05-21T14:10:48.098Z,16.24
2019-05-21T14:13:18.182Z,16.21
2019-05-21T14:15:48.500Z,16.20
2019-05-21T14:18:18.535Z,16.17
2019-05-21T14:20:49.048Z,16.13
2019-05-21T14:23:18.860Z,16.11
2019-05-21T14:25:50.900Z,16.05
2019-05-21T14:28:21.364Z,15.94
2019-05-21T14:30:52.178Z,15.86
2019-05-21T14:33:22.247Z,15.79
2019-05-21T14:35:52.164Z,15.74
2019-05-21T14:38:22.112Z,15.67
2019-05-21T14:40:52.131Z,15.72
2019-05-21T14:43:22.084Z,15.73
2019-05-21T14:45:52.439Z,15.68
2019-05-21T14:48:22.809Z,15.70
2019-05-21T14:50:52.814Z,15.73
2019-05-21T14:53:23.047Z,15.73
2019-05-21T14:55:53.230Z,15.74
2019-05-21T14:58:25.824Z,15.68
2019-05-21T15:00:59.801Z,15.69
2019-05-21T15:03:47.475Z,15.70
2019-05-21T15:06:10.342Z,15.71
2019-05-21T15:08:40.347Z,15.72
2019-05-21T15:11:10.454Z,15.68
2019-05-21T15:13:40.712Z,15.64
2019-05-21T15:16:10.787Z,15.61
2019-05-21T15:18:40.767Z,15.61
2019-05-21T15:21:24.644Z,15.66
2019-05-21T15:23:55.951Z,15.66
2019-05-21T15:26:26.052Z,15.68
2019-05-21T15:28:56.582Z,15.71
2019-05-21T15:31:27.100Z,15.74
2019-05-21T15:33:57.018Z,15.64
2019-05-21T15:36:28.317Z,15.87
2019-05-21T15:38:58.623Z,15.91
2019-05-21T15:41:28.940Z,16.03
2019-05-21T15:43:58.971Z,16.06
2019-05-21T15:46:45.483Z,16.15
2019-05-21T15:49:00.593Z,16.22
2019-05-21T15:51:31.064Z,16.27
2019-05-21T15:54:01.490Z,16.29
2019-05-21T15:56:32.035Z,16.33
2019-05-21T15:59:02.683Z,16.43
2019-05-21T16:01:32.907Z,16.45
2019-05-21T16:04:02.880Z,16.48
2019-05-21T16:06:33.046Z,16.53
2019-05-21T16:09:06.172Z,16.55
2019-05-21T16:11:36.082Z,16.55
2019-05-21T16:14:06.285Z,16.59
2019-05-21T16:16:36.481Z,16.66
2019-05-21T16:19:06.875Z,16.72
2019-05-21T16:21:36.661Z,16.78
2019-05-21T16:24:07.394Z,16.77
2019-05-21T16:26:37.705Z,16.75
2019-05-21T16:29:07.903Z,16.74
2019-05-21T16:31:38.060Z,16.67
2019-05-21T16:34:08.186Z,16.64
2019-05-21T16:36:40.027Z,16.67
2019-05-21T16:39:10.710Z,16.72
2019-05-21T16:41:44.553Z,16.78
2019-05-21T16:44:12.984Z,16.85
2019-05-21T16:46:43.144Z,16.90
2019-05-21T16:49:13.437Z,17.00
2019-05-21T16:51:44.086Z,17.02
2019-05-21T16:54:13.955Z,17.07
2019-05-21T16:56:43.940Z,17.09
2019-05-21T16:59:14.006Z,17.15
2019-05-21T17:01:44.746Z,17.13
2019-05-21T17:04:15.585Z,17.21
2019-05-21T17:06:45.905Z,17.10
2019-05-21T17:09:16.350Z,17.10
2019-05-21T17:11:59.103Z,17.12
2019-05-21T17:14:18.974Z,17.20
2019-05-21T17:16:49.067Z,17.21
2019-05-21T17:19:19.041Z,17.15
2019-05-21T17:21:49.819Z,17.06
2019-05-21T17:24:20.141Z,17.05
2019-05-21T17:26:50.042Z,17.00
2019-05-21T17:29:20.196Z,16.93
2019-05-21T17:31:50.260Z,16.79
2019-05-21T17:34:20.553Z,16.66
2019-05-21T17:36:50.567Z,16.57
2019-05-21T17:39:20.973Z,16.47
2019-05-21T17:41:51.807Z,16.37
2019-05-21T17:44:24.922Z,16.29
2019-05-21T17:46:54.962Z,16.23
2019-05-21T17:49:25.205Z,16.18
2019-05-21T17:51:55.270Z,16.13
2019-05-21T17:54:25.235Z,16.12
2019-05-21T17:56:57.058Z,16.10
2019-05-21T17:59:27.369Z,16.09
2019-05-21T18:01:57.384Z,16.02
2019-05-21T18:04:29.404Z,15.97
2019-05-21T18:06:59.816Z,15.93
2019-05-21T18:09:29.786Z,15.90
2019-05-21T18:12:00.252Z,15.88
2019-05-21T18:14:30.805Z,15.85
2019-05-21T18:17:00.765Z,15.82
2019-05-21T18:19:31.442Z,15.81
2019-05-21T18:22:01.861Z,15.83
2019-05-21T18:24:31.741Z,15.77
2019-05-21T18:27:01.777Z,15.72
2019-05-21T18:29:32.229Z,15.68
2019-05-21T18:32:02.239Z,15.68
2019-05-21T18:34:32.828Z,15.64
2019-05-21T18:37:03.270Z,15.63
2019-05-21T18:39:34.430Z,15.56
2019-05-21T18:42:04.985Z,15.55
2019-05-21T18:44:35.225Z,15.49
2019-05-21T18:47:06.419Z,15.46
2019-05-21T18:49:36.688Z,15.41
2019-05-21T18:52:06.893Z,15.39
2019-05-21T18:54:36.906Z,15.35
2019-05-21T18:57:08.706Z,15.35
2019-05-21T18:59:38.668Z,15.31
2019-05-21T19:02:10.232Z,15.29
2019-05-21T19:04:40.917Z,15.31
2019-05-21T19:07:11.460Z,15.11
2019-05-21T19:09:41.453Z,15.32
2019-05-21T19:12:11.492Z,15.28
2019-05-21T19:14:44.916Z,15.24
2019-05-21T19:17:14.903Z,15.22
2019-05-21T19:19:46.133Z,15.16
2019-05-21T19:22:16.255Z,15.16
2019-05-21T19:24:46.306Z,15.11
2019-05-21T19:27:19.269Z,15.07
2019-05-21T19:29:49.559Z,15.03
2019-05-21T19:32:19.581Z,15.03
2019-05-21T19:34:49.543Z,15.06
2019-05-21T19:37:19.507Z,15.07
2019-05-21T19:39:49.576Z,15.07
2019-05-21T19:42:19.694Z,15.06
2019-05-21T19:44:49.700Z,15.04
2019-05-21T19:47:19.622Z,15.06
2019-05-21T19:49:49.593Z,15.07
2019-05-21T19:52:19.961Z,15.06
2019-05-21T19:54:49.973Z,15.04
2019-05-21T19:57:22.255Z,15.04
2019-05-21T19:59:52.405Z,15.05
2019-05-21T20:02:23.691Z,15.05
2019-05-21T20:04:54.733Z,15.03
2019-05-21T20:07:26.198Z,15.01
2019-05-21T20:09:57.153Z,14.98
2019-05-21T20:12:27.737Z,14.99
2019-05-21T20:14:58.133Z,14.97
2019-05-21T20:17:28.534Z,14.93
2019-05-21T20:19:59.147Z,14.92
2019-05-21T20:22:30.653Z,14.92
2019-05-21T20:25:01.261Z,14.90
2019-05-21T20:27:32.367Z,14.88
2019-05-21T20:30:12.279Z,14.89
2019-05-21T20:32:36.627Z,14.86
2019-05-21T20:35:08.208Z,14.82
2019-05-21T20:37:40.376Z,14.83
2019-05-21T20:40:13.703Z,14.81
2019-05-21T20:42:47.379Z,14.82
2019-05-21T20:45:19.195Z,14.82
2019-05-21T20:47:51.102Z,14.82
2019-05-21T20:50:22.687Z,14.67
2019-05-21T20:52:53.738Z,14.80
2019-05-21T20:55:23.872Z,14.79
2019-05-21T20:57:55.517Z,14.73
2019-05-21T21:00:30.307Z,14.66
2019-05-21T21:03:00.640Z,14.64
2019-05-21T21:05:31.056Z,14.62
2019-05-21T21:08:01.388Z,14.63
2019-05-21T21:10:32.016Z,14.59
2019-05-21T21:13:02.445Z,14.58
2019-05-21T21:15:32.664Z,14.54
2019-05-21T21:18:03.552Z,14.54
2019-05-21T21:20:34.218Z,14.52
2019-05-21T21:23:05.117Z,14.50
2019-05-21T21:25:35.590Z,14.50
2019-05-21T21:28:06.350Z,14.49
2019-05-21T21:30:37.377Z,14.45
2019-05-21T21:33:08.496Z,14.45
2019-05-21T21:35:38.588Z,14.40
2019-05-21T21:38:11.490Z,14.38
2019-05-21T21:40:41.638Z,14.33
2019-05-21T21:43:12.273Z,14.25
2019-05-21T21:45:43.044Z,14.23
2019-05-21T21:48:15.002Z,14.24
2019-05-21T21:50:50.908Z,14.27
2019-05-21T21:53:21.458Z,14.24
2019-05-21T21:55:52.601Z,14.18
2019-05-21T21:58:23.062Z,14.14
2019-05-21T22:01:21.823Z,14.14
2019-05-21T22:03:52.581Z,14.08
2019-05-21T22:06:23.795Z,14.04
2019-05-21T22:08:54.670Z,14.00
2019-05-21T22:11:25.085Z,13.99
2019-05-21T22:13:56.210Z,14.00
2019-05-21T22:16:27.446Z,13.99
2019-05-21T22:18:57.498Z,13.91
2019-05-21T22:21:28.013Z,13.85
2019-05-21T22:23:58.400Z,13.83
2019-05-21T22:26:29.380Z,13.86
2019-05-21T22:28:59.559Z,13.84
2019-05-21T22:31:29.593Z,13.79
2019-05-21T22:34:00.059Z,13.75
2019-05-21T22:36:30.582Z,13.75
2019-05-21T22:39:00.487Z,13.73
2019-05-21T22:41:31.993Z,13.69
2019-05-21T22:44:02.515Z,13.68
2019-05-21T22:46:32.946Z,13.68
2019-05-21T22:49:03.681Z,13.74
2019-05-21T22:51:33.870Z,13.79
2019-05-21T22:54:03.786Z,13.78
2019-05-21T22:56:33.641Z,13.76
2019-05-21T22:59:06.109Z,13.72
2019-05-21T23:01:37.600Z,13.65
2019-05-21T23:04:08.200Z,13.64
2019-05-21T23:06:38.259Z,13.66
2019-05-21T23:09:09.086Z,13.63
2019-05-21T23:11:39.036Z,13.61
2019-05-21T23:14:09.023Z,13.59
2019-05-21T23:16:39.306Z,13.59
2019-05-21T23:19:11.597Z,13.62
2019-05-21T23:21:44.288Z,13.65
2019-05-21T23:24:19.020Z,13.70
2019-05-21T23:26:49.251Z,13.72
2019-05-21T23:29:19.602Z,13.73
2019-05-21T23:31:49.782Z,13.68
2019-05-21T23:34:20.709Z,13.61
2019-05-21T23:36:51.462Z,13.62
2019-05-21T23:39:23.211Z,13.58
2019-05-21T23:41:53.517Z,13.57
2019-05-21T23:44:24.148Z,13.57
2019-05-21T23:46:54.478Z,13.57
2019-05-21T23:49:24.314Z,13.58
2019-05-21T23:51:54.536Z,13.59
2019-05-21T23:54:24.602Z,13.57
2019-05-21T23:56:55.645Z,13.57
2019-05-21T23:59:26.207Z,13.59
